sensor_id;sensor_type;location;lat;lon;timestamp;P1;durP1;ratioP1;P2;durP2;ratioP2
44850;SDS011;30583;48.714;9.386;2023-02-28T00:01:19;6.00;;;2.78;;
44850;SDS011;30583;48.714;9.386;2023-02-28T00:03:44;6.50;;;3.30;;
44850;SDS011;30583;48.714;9.386;2023-02-28T00:06:10;7.13;;;3.08;;
44850;SDS011;30583;48.714;9.386;2023-02-28T00:08:36;4.80;;;2.95;;
44850;SDS011;30583;48.714;9.386;2023-02-28T00:11:03;5.65;;;3.20;;
44850;SDS011;30583;48.714;9.386;2023-02-28T00:13:30;6.78;;;3.10;;
44850;SDS011;30583;48.714;9.386;2023-02-28T00:16:00;6.07;;;3.08;;
44850;SDS011;30583;48.714;9.386;2023-02-28T00:18:30;5.18;;;2.60;;
44850;SDS011;30583;48.714;9.386;2023-02-28T00:20:56;5.05;;;2.65;;
44850;SDS011;30583;48.714;9.386;2023-02-28T00:23:23;7.68;;;3.00;;
44850;SDS011;30583;48.714;9.386;2023-02-28T00:25:48;5.72;;;2.63;;
44850;SDS011;30583;48.714;9.386;2023-02-28T00:28:15;4.82;;;2.30;;
44850;SDS011;30583;48.714;9.386;2023-02-28T00:30:41;6.68;;;2.95;;
44850;SDS011;30583;48.714;9.386;2023-02-28T00:33:07;6.93;;;2.65;;
44850;SDS011;30583;48.714;9.386;2023-02-28T00:35:33;5.40;;;2.72;;
44850;SDS011;30583;48.714;9.386;2023-02-28T00:37:58;5.57;;;3.13;;
44850;SDS011;30583;48.714;9.386;2023-02-28T00:40:24;6.13;;;3.40;;
44850;SDS011;30583;48.714;9.386;2023-02-28T00:42:49;5.15;;;2.67;;
44850;SDS011;30583;48.714;9.386;2023-02-28T00:45:15;6.95;;;3.60;;
44850;SDS011;30583;48.714;9.386;2023-02-28T00:47:40;7.40;;;3.35;;
44850;SDS011;30583;48.714;9.386;2023-02-28T00:50:06;5.13;;;2.70;;
44850;SDS011;30583;48.714;9.386;2023-02-28T00:52:33;5.60;;;3.05;;
44850;SDS011;30583;48.714;9.386;2023-02-28T00:54:59;4.32;;;2.70;;
44850;SDS011;30583;48.714;9.386;2023-02-28T00:57:24;6.38;;;2.72;;
44850;SDS011;30583;48.714;9.386;2023-02-28T00:59:51;5.13;;;3.00;;
44850;SDS011;30583;48.714;9.386;2023-02-28T01:02:19;4.22;;;2.45;;
44850;SDS011;30583;48.714;9.386;2023-02-28T01:04:45;5.93;;;3.05;;
44850;SDS011;30583;48.714;9.386;2023-02-28T01:07:11;6.38;;;3.20;;
44850;SDS011;30583;48.714;9.386;2023-02-28T01:09:36;6.10;;;2.70;;
44850;SDS011;30583;48.714;9.386;2023-02-28T01:12:02;5.18;;;2.90;;
44850;SDS011;30583;48.714;9.386;2023-02-28T01:14:28;5.85;;;3.28;;
44850;SDS011;30583;48.714;9.386;2023-02-28T01:16:53;6.05;;;2.67;;
44850;SDS011;30583;48.714;9.386;2023-02-28T01:19:19;5.85;;;2.90;;
44850;SDS011;30583;48.714;9.386;2023-02-28T01:21:44;5.68;;;3.00;;
44850;SDS011;30583;48.714;9.386;2023-02-28T01:24:10;6.15;;;2.90;;
44850;SDS011;30583;48.714;9.386;2023-02-28T01:26:35;5.38;;;2.78;;
44850;SDS011;30583;48.714;9.386;2023-02-28T01:29:01;5.80;;;3.42;;
44850;SDS011;30583;48.714;9.386;2023-02-28T01:31:27;6.40;;;3.08;;
44850;SDS011;30583;48.714;9.386;2023-02-28T01:33:52;6.53;;;3.10;;
44850;SDS011;30583;48.714;9.386;2023-02-28T01:36:22;5.50;;;3.10;;
44850;SDS011;30583;48.714;9.386;2023-02-28T01:38:48;6.13;;;3.05;;
44850;SDS011;30583;48.714;9.386;2023-02-28T01:41:19;4.38;;;2.75;;
44850;SDS011;30583;48.714;9.386;2023-02-28T01:46:10;6.53;;;3.03;;
44850;SDS011;30583;48.714;9.386;2023-02-28T01:48:38;5.28;;;3.08;;
44850;SDS011;30583;48.714;9.386;2023-02-28T01:51:12;6.32;;;3.38;;
44850;SDS011;30583;48.714;9.386;2023-02-28T01:53:52;5.85;;;3.17;;
44850;SDS011;30583;48.714;9.386;2023-02-28T01:56:26;4.78;;;3.28;;
44850;SDS011;30583;48.714;9.386;2023-02-28T01:58:54;7.03;;;3.50;;
44850;SDS011;30583;48.714;9.386;2023-02-28T02:01:21;4.82;;;2.92;;
44850;SDS011;30583;48.714;9.386;2023-02-28T02:03:49;5.40;;;3.42;;
44850;SDS011;30583;48.714;9.386;2023-02-28T02:06:21;6.97;;;3.63;;
44850;SDS011;30583;48.714;9.386;2023-02-28T02:08:50;6.95;;;3.40;;
44850;SDS011;30583;48.714;9.386;2023-02-28T02:11:17;5.80;;;3.20;;
44850;SDS011;30583;48.714;9.386;2023-02-28T02:21:42;4.80;;;3.30;;
44850;SDS011;30583;48.714;9.386;2023-02-28T02:24:29;6.00;;;3.13;;
44850;SDS011;30583;48.714;9.386;2023-02-28T02:38:06;5.53;;;3.30;;
44850;SDS011;30583;48.714;9.386;2023-02-28T02:43:38;5.43;;;3.45;;
44850;SDS011;30583;48.714;9.386;2023-02-28T02:46:15;7.07;;;3.80;;
44850;SDS011;30583;48.714;9.386;2023-02-28T02:48:51;5.72;;;3.60;;
44850;SDS011;30583;48.714;9.386;2023-02-28T02:51:20;5.07;;;3.53;;
44850;SDS011;30583;48.714;9.386;2023-02-28T02:53:57;6.28;;;3.28;;
44850;SDS011;30583;48.714;9.386;2023-02-28T02:56:33;5.78;;;3.60;;
44850;SDS011;30583;48.714;9.386;2023-02-28T02:59:02;5.43;;;3.50;;
44850;SDS011;30583;48.714;9.386;2023-02-28T03:01:31;5.65;;;3.50;;
44850;SDS011;30583;48.714;9.386;2023-02-28T03:04:07;7.55;;;4.03;;
44850;SDS011;30583;48.714;9.386;2023-02-28T03:06:34;7.07;;;3.42;;
44850;SDS011;30583;48.714;9.386;2023-02-28T03:09:00;8.63;;;3.80;;
44850;SDS011;30583;48.714;9.386;2023-02-28T03:11:26;6.68;;;3.70;;
44850;SDS011;30583;48.714;9.386;2023-02-28T03:16:35;5.57;;;3.50;;
44850;SDS011;30583;48.714;9.386;2023-02-28T03:22:23;5.22;;;3.80;;
44850;SDS011;30583;48.714;9.386;2023-02-28T03:27:54;8.00;;;3.53;;
44850;SDS011;30583;48.714;9.386;2023-02-28T03:33:09;5.68;;;3.50;;
44850;SDS011;30583;48.714;9.386;2023-02-28T03:35:50;8.02;;;3.97;;
44850;SDS011;30583;48.714;9.386;2023-02-28T03:40:51;5.47;;;3.75;;
44850;SDS011;30583;48.714;9.386;2023-02-28T03:43:31;7.30;;;4.00;;
44850;SDS011;30583;48.714;9.386;2023-02-28T03:46:01;7.72;;;4.25;;
44850;SDS011;30583;48.714;9.386;2023-02-28T03:48:34;7.20;;;4.45;;
44850;SDS011;30583;48.714;9.386;2023-02-28T03:51:08;5.75;;;3.80;;
44850;SDS011;30583;48.714;9.386;2023-02-28T03:53:42;8.35;;;4.15;;
44850;SDS011;30583;48.714;9.386;2023-02-28T03:56:16;8.23;;;4.72;;
44850;SDS011;30583;48.714;9.386;2023-02-28T03:58:54;7.10;;;4.35;;
44850;SDS011;30583;48.714;9.386;2023-02-28T04:01:25;6.68;;;4.15;;
44850;SDS011;30583;48.714;9.386;2023-02-28T04:03:56;6.05;;;4.35;;
44850;SDS011;30583;48.714;9.386;2023-02-28T04:06:22;8.27;;;4.45;;
44850;SDS011;30583;48.714;9.386;2023-02-28T04:08:49;7.75;;;4.50;;
44850;SDS011;30583;48.714;9.386;2023-02-28T04:11:35;6.95;;;4.15;;
44850;SDS011;30583;48.714;9.386;2023-02-28T04:14:08;9.43;;;4.60;;
44850;SDS011;30583;48.714;9.386;2023-02-28T04:16:36;6.90;;;4.72;;
44850;SDS011;30583;48.714;9.386;2023-02-28T04:19:05;9.70;;;5.07;;
44850;SDS011;30583;48.714;9.386;2023-02-28T04:21:33;5.88;;;4.35;;
44850;SDS011;30583;48.714;9.386;2023-02-28T04:24:00;7.85;;;4.68;;
44850;SDS011;30583;48.714;9.386;2023-02-28T04:26:29;7.75;;;4.30;;
44850;SDS011;30583;48.714;9.386;2023-02-28T04:28:55;7.13;;;4.30;;
44850;SDS011;30583;48.714;9.386;2023-02-28T04:31:21;7.85;;;4.65;;
44850;SDS011;30583;48.714;9.386;2023-02-28T04:33:47;8.25;;;4.45;;
44850;SDS011;30583;48.714;9.386;2023-02-28T04:36:12;8.20;;;4.55;;
44850;SDS011;30583;48.714;9.386;2023-02-28T04:38:39;7.65;;;4.80;;
44850;SDS011;30583;48.714;9.386;2023-02-28T04:41:05;7.05;;;4.90;;
44850;SDS011;30583;48.714;9.386;2023-02-28T04:43:31;7.55;;;4.70;;
44850;SDS011;30583;48.714;9.386;2023-02-28T04:45:58;9.05;;;4.93;;
44850;SDS011;30583;48.714;9.386;2023-02-28T04:48:27;9.60;;;5.28;;
44850;SDS011;30583;48.714;9.386;2023-02-28T04:50:54;7.97;;;4.80;;
44850;SDS011;30583;48.714;9.386;2023-02-28T04:53:20;8.13;;;5.03;;
44850;SDS011;30583;48.714;9.386;2023-02-28T04:55:46;10.95;;;5.53;;
44850;SDS011;30583;48.714;9.386;2023-02-28T04:58:14;8.70;;;4.72;;
44850;SDS011;30583;48.714;9.386;2023-02-28T05:00:41;7.85;;;4.65;;
44850;SDS011;30583;48.714;9.386;2023-02-28T05:03:06;8.35;;;5.18;;
44850;SDS011;30583;48.714;9.386;2023-02-28T05:05:32;9.00;;;5.60;;
44850;SDS011;30583;48.714;9.386;2023-02-28T05:07:57;9.02;;;5.38;;
44850;SDS011;30583;48.714;9.386;2023-02-28T05:10:23;10.82;;;4.82;;
44850;SDS011;30583;48.714;9.386;2023-02-28T05:12:49;7.43;;;4.82;;
44850;SDS011;30583;48.714;9.386;2023-02-28T05:15:14;7.65;;;5.30;;
44850;SDS011;30583;48.714;9.386;2023-02-28T05:17:41;9.43;;;5.25;;
44850;SDS011;30583;48.714;9.386;2023-02-28T05:20:07;7.90;;;4.95;;
44850;SDS011;30583;48.714;9.386;2023-02-28T05:22:36;8.63;;;5.53;;
44850;SDS011;30583;48.714;9.386;2023-02-28T05:25:02;10.88;;;6.20;;
44850;SDS011;30583;48.714;9.386;2023-02-28T05:27:29;8.10;;;5.22;;
44850;SDS011;30583;48.714;9.386;2023-02-28T05:29:55;8.90;;;5.28;;
44850;SDS011;30583;48.714;9.386;2023-02-28T05:32:21;7.65;;;5.32;;
44850;SDS011;30583;48.714;9.386;2023-02-28T05:34:47;8.63;;;5.20;;
44850;SDS011;30583;48.714;9.386;2023-02-28T05:37:13;11.30;;;5.63;;
44850;SDS011;30583;48.714;9.386;2023-02-28T05:39:40;7.97;;;5.47;;
44850;SDS011;30583;48.714;9.386;2023-02-28T05:42:07;9.90;;;5.80;;
44850;SDS011;30583;48.714;9.386;2023-02-28T05:44:34;10.60;;;6.72;;
44850;SDS011;30583;48.714;9.386;2023-02-28T05:47:00;15.65;;;8.48;;
44850;SDS011;30583;48.714;9.386;2023-02-28T05:49:25;18.73;;;11.40;;
44850;SDS011;30583;48.714;9.386;2023-02-28T05:51:51;17.58;;;10.70;;
44850;SDS011;30583;48.714;9.386;2023-02-28T05:54:16;11.25;;;8.45;;
44850;SDS011;30583;48.714;9.386;2023-02-28T05:56:42;11.68;;;6.68;;
44850;SDS011;30583;48.714;9.386;2023-02-28T05:59:10;12.80;;;7.25;;
44850;SDS011;30583;48.714;9.386;2023-02-28T06:01:39;11.13;;;6.53;;
44850;SDS011;30583;48.714;9.386;2023-02-28T06:04:08;12.13;;;6.60;;
44850;SDS011;30583;48.714;9.386;2023-02-28T06:06:35;9.88;;;5.82;;
44850;SDS011;30583;48.714;9.386;2023-02-28T06:09:02;11.57;;;7.05;;
44850;SDS011;30583;48.714;9.386;2023-02-28T06:11:29;9.70;;;6.15;;
44850;SDS011;30583;48.714;9.386;2023-02-28T06:13:58;10.27;;;6.35;;
44850;SDS011;30583;48.714;9.386;2023-02-28T06:16:26;12.38;;;8.27;;
44850;SDS011;30583;48.714;9.386;2023-02-28T06:18:52;10.98;;;6.97;;
44850;SDS011;30583;48.714;9.386;2023-02-28T06:21:21;13.68;;;6.82;;
44850;SDS011;30583;48.714;9.386;2023-02-28T06:23:47;8.18;;;6.25;;
44850;SDS011;30583;48.714;9.386;2023-02-28T06:26:13;10.73;;;7.13;;
44850;SDS011;30583;48.714;9.386;2023-02-28T06:28:38;11.63;;;6.90;;
44850;SDS011;30583;48.714;9.386;2023-02-28T06:31:10;11.75;;;7.25;;
44850;SDS011;30583;48.714;9.386;2023-02-28T06:36:04;12.07;;;8.15;;
44850;SDS011;30583;48.714;9.386;2023-02-28T06:38:31;10.77;;;7.60;;
44850;SDS011;30583;48.714;9.386;2023-02-28T06:40:57;11.30;;;7.22;;
44850;SDS011;30583;48.714;9.386;2023-02-28T06:43:25;15.02;;;9.95;;
44850;SDS011;30583;48.714;9.386;2023-02-28T06:45:57;18.38;;;11.63;;
44850;SDS011;30583;48.714;9.386;2023-02-28T06:48:25;28.63;;;16.98;;
44850;SDS011;30583;48.714;9.386;2023-02-28T06:50:51;34.47;;;19.88;;
44850;SDS011;30583;48.714;9.386;2023-02-28T06:53:17;22.48;;;12.80;;
44850;SDS011;30583;48.714;9.386;2023-02-28T06:55:43;27.13;;;14.63;;
44850;SDS011;30583;48.714;9.386;2023-02-28T06:58:09;16.95;;;10.25;;
44850;SDS011;30583;48.714;9.386;2023-02-28T07:00:44;16.98;;;8.65;;
44850;SDS011;30583;48.714;9.386;2023-02-28T07:03:11;19.15;;;10.98;;
44850;SDS011;30583;48.714;9.386;2023-02-28T07:05:37;14.90;;;9.02;;
44850;SDS011;30583;48.714;9.386;2023-02-28T07:08:04;14.35;;;9.00;;
44850;SDS011;30583;48.714;9.386;2023-02-28T07:10:33;20.17;;;11.18;;
44850;SDS011;30583;48.714;9.386;2023-02-28T07:12:59;16.15;;;9.57;;
44850;SDS011;30583;48.714;9.386;2023-02-28T07:15:25;16.88;;;9.27;;
44850;SDS011;30583;48.714;9.386;2023-02-28T07:17:51;12.65;;;8.15;;
44850;SDS011;30583;48.714;9.386;2023-02-28T07:20:17;12.10;;;7.85;;
44850;SDS011;30583;48.714;9.386;2023-02-28T07:22:42;15.73;;;9.43;;
44850;SDS011;30583;48.714;9.386;2023-02-28T07:25:08;16.17;;;9.80;;
44850;SDS011;30583;48.714;9.386;2023-02-28T07:27:34;14.35;;;10.35;;
44850;SDS011;30583;48.714;9.386;2023-02-28T07:30:00;17.15;;;10.38;;
44850;SDS011;30583;48.714;9.386;2023-02-28T07:32:28;17.23;;;10.73;;
44850;SDS011;30583;48.714;9.386;2023-02-28T07:34:54;12.93;;;8.90;;
44850;SDS011;30583;48.714;9.386;2023-02-28T07:37:20;12.57;;;8.57;;
44850;SDS011;30583;48.714;9.386;2023-02-28T07:39:45;14.70;;;8.77;;
44850;SDS011;30583;48.714;9.386;2023-02-28T07:42:11;13.63;;;8.35;;
44850;SDS011;30583;48.714;9.386;2023-02-28T07:44:40;13.40;;;8.10;;
44850;SDS011;30583;48.714;9.386;2023-02-28T07:47:09;14.60;;;8.82;;
44850;SDS011;30583;48.714;9.386;2023-02-28T07:49:36;14.70;;;9.15;;
44850;SDS011;30583;48.714;9.386;2023-02-28T07:52:02;17.27;;;9.10;;
44850;SDS011;30583;48.714;9.386;2023-02-28T07:54:28;14.82;;;9.77;;
44850;SDS011;30583;48.714;9.386;2023-02-28T07:56:54;13.85;;;8.07;;
44850;SDS011;30583;48.714;9.386;2023-02-28T07:59:19;13.05;;;8.05;;
44850;SDS011;30583;48.714;9.386;2023-02-28T08:01:45;14.32;;;8.60;;
44850;SDS011;30583;48.714;9.386;2023-02-28T08:04:11;11.55;;;8.18;;
44850;SDS011;30583;48.714;9.386;2023-02-28T08:06:36;14.48;;;7.78;;
44850;SDS011;30583;48.714;9.386;2023-02-28T08:09:02;13.90;;;8.77;;
44850;SDS011;30583;48.714;9.386;2023-02-28T08:11:27;13.35;;;9.07;;
44850;SDS011;30583;48.714;9.386;2023-02-28T08:13:54;16.33;;;8.57;;
44850;SDS011;30583;48.714;9.386;2023-02-28T08:16:20;13.15;;;7.80;;
44850;SDS011;30583;48.714;9.386;2023-02-28T08:18:47;18.98;;;9.88;;
44850;SDS011;30583;48.714;9.386;2023-02-28T08:21:17;12.80;;;8.40;;
44850;SDS011;30583;48.714;9.386;2023-02-28T08:23:45;14.82;;;9.75;;
44850;SDS011;30583;48.714;9.386;2023-02-28T08:26:16;14.63;;;9.20;;
44850;SDS011;30583;48.714;9.386;2023-02-28T08:28:42;15.27;;;8.77;;
44850;SDS011;30583;48.714;9.386;2023-02-28T08:31:09;13.35;;;8.57;;
44850;SDS011;30583;48.714;9.386;2023-02-28T08:33:36;15.52;;;8.75;;
44850;SDS011;30583;48.714;9.386;2023-02-28T08:36:04;15.40;;;8.65;;
44850;SDS011;30583;48.714;9.386;2023-02-28T08:38:30;13.63;;;8.68;;
44850;SDS011;30583;48.714;9.386;2023-02-28T08:41:03;13.70;;;9.45;;
44850;SDS011;30583;48.714;9.386;2023-02-28T08:43:32;17.25;;;10.27;;
44850;SDS011;30583;48.714;9.386;2023-02-28T08:45:58;12.82;;;8.40;;
44850;SDS011;30583;48.714;9.386;2023-02-28T08:48:24;15.43;;;9.13;;
44850;SDS011;30583;48.714;9.386;2023-02-28T08:50:55;17.15;;;9.43;;
44850;SDS011;30583;48.714;9.386;2023-02-28T08:53:25;14.95;;;9.40;;
44850;SDS011;30583;48.714;9.386;2023-02-28T08:56:01;15.35;;;9.52;;
44850;SDS011;30583;48.714;9.386;2023-02-28T08:58:29;29.00;;;15.10;;
44850;SDS011;30583;48.714;9.386;2023-02-28T09:00:55;22.65;;;12.57;;
44850;SDS011;30583;48.714;9.386;2023-02-28T09:03:21;15.65;;;9.80;;
44850;SDS011;30583;48.714;9.386;2023-02-28T09:08:26;15.20;;;9.65;;
44850;SDS011;30583;48.714;9.386;2023-02-28T09:10:53;13.60;;;9.05;;
44850;SDS011;30583;48.714;9.386;2023-02-28T09:13:21;12.50;;;8.55;;
44850;SDS011;30583;48.714;9.386;2023-02-28T09:15:47;16.02;;;8.65;;
44850;SDS011;30583;48.714;9.386;2023-02-28T09:18:13;10.98;;;7.63;;
44850;SDS011;30583;48.714;9.386;2023-02-28T09:20:39;14.93;;;8.73;;
44850;SDS011;30583;48.714;9.386;2023-02-28T09:23:06;15.20;;;8.70;;
44850;SDS011;30583;48.714;9.386;2023-02-28T09:25:32;12.85;;;8.30;;
44850;SDS011;30583;48.714;9.386;2023-02-28T09:27:58;13.15;;;8.95;;
44850;SDS011;30583;48.714;9.386;2023-02-28T09:30:24;12.95;;;8.38;;
44850;SDS011;30583;48.714;9.386;2023-02-28T09:32:50;13.23;;;9.20;;
44850;SDS011;30583;48.714;9.386;2023-02-28T09:35:18;13.65;;;8.35;;
44850;SDS011;30583;48.714;9.386;2023-02-28T09:37:46;12.15;;;7.88;;
44850;SDS011;30583;48.714;9.386;2023-02-28T09:40:12;14.45;;;8.38;;
44850;SDS011;30583;48.714;9.386;2023-02-28T09:42:39;14.70;;;8.52;;
44850;SDS011;30583;48.714;9.386;2023-02-28T09:45:06;16.58;;;8.85;;
44850;SDS011;30583;48.714;9.386;2023-02-28T09:47:49;15.82;;;8.23;;
44850;SDS011;30583;48.714;9.386;2023-02-28T09:53:02;13.90;;;8.55;;
44850;SDS011;30583;48.714;9.386;2023-02-28T09:55:39;12.98;;;8.23;;
44850;SDS011;30583;48.714;9.386;2023-02-28T09:58:56;12.88;;;8.93;;
44850;SDS011;30583;48.714;9.386;2023-02-28T10:01:21;10.82;;;7.40;;
44850;SDS011;30583;48.714;9.386;2023-02-28T10:06:35;13.88;;;8.70;;
44850;SDS011;30583;48.714;9.386;2023-02-28T10:09:23;13.63;;;8.60;;
44850;SDS011;30583;48.714;9.386;2023-02-28T10:11:52;14.25;;;8.77;;
44850;SDS011;30583;48.714;9.386;2023-02-28T10:14:22;15.07;;;8.57;;
44850;SDS011;30583;48.714;9.386;2023-02-28T10:17:25;13.85;;;8.63;;
44850;SDS011;30583;48.714;9.386;2023-02-28T10:24:53;12.75;;;8.52;;
44850;SDS011;30583;48.714;9.386;2023-02-28T10:29:53;12.65;;;8.50;;
44850;SDS011;30583;48.714;9.386;2023-02-28T10:32:22;13.02;;;7.70;;
44850;SDS011;30583;48.714;9.386;2023-02-28T10:35:00;14.07;;;8.10;;
44850;SDS011;30583;48.714;9.386;2023-02-28T10:37:43;13.60;;;8.52;;
44850;SDS011;30583;48.714;9.386;2023-02-28T10:45:24;15.88;;;9.50;;
44850;SDS011;30583;48.714;9.386;2023-02-28T10:48:01;14.73;;;8.93;;
44850;SDS011;30583;48.714;9.386;2023-02-28T10:50:51;15.88;;;8.70;;
44850;SDS011;30583;48.714;9.386;2023-02-28T10:58:42;13.68;;;8.85;;
44850;SDS011;30583;48.714;9.386;2023-02-28T11:01:17;15.15;;;9.73;;
44850;SDS011;30583;48.714;9.386;2023-02-28T11:03:45;16.27;;;9.85;;
44850;SDS011;30583;48.714;9.386;2023-02-28T11:06:13;17.17;;;11.20;;
44850;SDS011;30583;48.714;9.386;2023-02-28T11:08:53;17.58;;;10.55;;
44850;SDS011;30583;48.714;9.386;2023-02-28T11:11:21;13.60;;;8.88;;
44850;SDS011;30583;48.714;9.386;2023-02-28T11:13:51;13.07;;;8.95;;
44850;SDS011;30583;48.714;9.386;2023-02-28T11:16:19;14.15;;;9.18;;
44850;SDS011;30583;48.714;9.386;2023-02-28T11:18:53;17.58;;;9.40;;
44850;SDS011;30583;48.714;9.386;2023-02-28T11:23:45;14.27;;;8.95;;
44850;SDS011;30583;48.714;9.386;2023-02-28T11:26:14;15.80;;;9.27;;
44850;SDS011;30583;48.714;9.386;2023-02-28T11:28:41;15.67;;;9.20;;
44850;SDS011;30583;48.714;9.386;2023-02-28T11:36:19;15.15;;;9.07;;
44850;SDS011;30583;48.714;9.386;2023-02-28T11:38:50;12.75;;;7.78;;
44850;SDS011;30583;48.714;9.386;2023-02-28T11:41:37;13.82;;;8.13;;
44850;SDS011;30583;48.714;9.386;2023-02-28T11:44:21;14.30;;;8.88;;
44850;SDS011;30583;48.714;9.386;2023-02-28T11:47:00;13.93;;;9.00;;
44850;SDS011;30583;48.714;9.386;2023-02-28T11:49:32;11.68;;;8.27;;
44850;SDS011;30583;48.714;9.386;2023-02-28T12:03:39;13.35;;;8.88;;
44850;SDS011;30583;48.714;9.386;2023-02-28T12:06:27;12.73;;;8.35;;
44850;SDS011;30583;48.714;9.386;2023-02-28T12:09:02;11.10;;;8.40;;
44850;SDS011;30583;48.714;9.386;2023-02-28T12:11:52;13.55;;;8.85;;
44850;SDS011;30583;48.714;9.386;2023-02-28T12:19:59;13.57;;;8.30;;
44850;SDS011;30583;48.714;9.386;2023-02-28T12:25:46;22.23;;;12.88;;
44850;SDS011;30583;48.714;9.386;2023-02-28T12:28:14;17.52;;;11.73;;
44850;SDS011;30583;48.714;9.386;2023-02-28T12:30:47;15.45;;;10.20;;
44850;SDS011;30583;48.714;9.386;2023-02-28T12:33:18;14.13;;;9.82;;
44850;SDS011;30583;48.714;9.386;2023-02-28T12:35:54;14.15;;;10.13;;
44850;SDS011;30583;48.714;9.386;2023-02-28T12:41:00;14.07;;;9.23;;
44850;SDS011;30583;48.714;9.386;2023-02-28T12:43:32;13.93;;;9.43;;
44850;SDS011;30583;48.714;9.386;2023-02-28T12:46:08;16.23;;;11.73;;
44850;SDS011;30583;48.714;9.386;2023-02-28T12:48:58;14.60;;;10.00;;
44850;SDS011;30583;48.714;9.386;2023-02-28T12:51:29;14.95;;;9.77;;
44850;SDS011;30583;48.714;9.386;2023-02-28T12:56:54;12.57;;;8.35;;
44850;SDS011;30583;48.714;9.386;2023-02-28T12:59:52;16.55;;;8.50;;
44850;SDS011;30583;48.714;9.386;2023-02-28T13:05:04;14.88;;;10.48;;
44850;SDS011;30583;48.714;9.386;2023-02-28T13:07:55;11.02;;;8.27;;
44850;SDS011;30583;48.714;9.386;2023-02-28T13:10:42;11.68;;;8.68;;
44850;SDS011;30583;48.714;9.386;2023-02-28T13:13:19;11.13;;;8.38;;
44850;SDS011;30583;48.714;9.386;2023-02-28T13:16:00;12.20;;;8.35;;
44850;SDS011;30583;48.714;9.386;2023-02-28T13:18:33;14.13;;;9.45;;
44850;SDS011;30583;48.714;9.386;2023-02-28T13:21:21;19.42;;;11.77;;
44850;SDS011;30583;48.714;9.386;2023-02-28T13:29:01;13.88;;;8.90;;
44850;SDS011;30583;48.714;9.386;2023-02-28T13:31:29;13.70;;;8.32;;
44850;SDS011;30583;48.714;9.386;2023-02-28T13:36:28;15.88;;;8.35;;
44850;SDS011;30583;48.714;9.386;2023-02-28T13:38:58;10.25;;;7.72;;
44850;SDS011;30583;48.714;9.386;2023-02-28T13:49:18;13.70;;;8.30;;
44850;SDS011;30583;48.714;9.386;2023-02-28T14:00:06;12.98;;;7.85;;
44850;SDS011;30583;48.714;9.386;2023-02-28T14:05:38;11.32;;;8.23;;
44850;SDS011;30583;48.714;9.386;2023-02-28T14:08:16;12.63;;;8.75;;
44850;SDS011;30583;48.714;9.386;2023-02-28T14:10:47;16.33;;;8.43;;
44850;SDS011;30583;48.714;9.386;2023-02-28T14:16:02;11.82;;;7.97;;
44850;SDS011;30583;48.714;9.386;2023-02-28T14:18:31;14.18;;;9.13;;
44850;SDS011;30583;48.714;9.386;2023-02-28T14:23:43;13.05;;;8.95;;
44850;SDS011;30583;48.714;9.386;2023-02-28T14:28:52;10.63;;;7.88;;
44850;SDS011;30583;48.714;9.386;2023-02-28T14:31:34;10.70;;;8.00;;
44850;SDS011;30583;48.714;9.386;2023-02-28T14:34:25;12.45;;;8.88;;
44850;SDS011;30583;48.714;9.386;2023-02-28T14:37:24;18.13;;;9.07;;
44850;SDS011;30583;48.714;9.386;2023-02-28T14:39:55;14.35;;;9.15;;
44850;SDS011;30583;48.714;9.386;2023-02-28T14:42:28;11.85;;;7.90;;
44850;SDS011;30583;48.714;9.386;2023-02-28T14:44:58;11.77;;;8.15;;
44850;SDS011;30583;48.714;9.386;2023-02-28T14:47:28;11.32;;;8.73;;
44850;SDS011;30583;48.714;9.386;2023-02-28T14:49:58;11.52;;;8.38;;
44850;SDS011;30583;48.714;9.386;2023-02-28T14:52:25;12.00;;;9.05;;
44850;SDS011;30583;48.714;9.386;2023-02-28T14:54:57;11.88;;;8.02;;
44850;SDS011;30583;48.714;9.386;2023-02-28T14:57:39;11.85;;;7.95;;
44850;SDS011;30583;48.714;9.386;2023-02-28T15:00:11;15.07;;;9.35;;
44850;SDS011;30583;48.714;9.386;2023-02-28T15:02:41;12.63;;;8.52;;
44850;SDS011;30583;48.714;9.386;2023-02-28T15:07:46;13.57;;;9.18;;
44850;SDS011;30583;48.714;9.386;2023-02-28T15:12:57;12.25;;;9.18;;
44850;SDS011;30583;48.714;9.386;2023-02-28T15:15:25;15.60;;;10.07;;
44850;SDS011;30583;48.714;9.386;2023-02-28T15:18:03;13.55;;;8.75;;
44850;SDS011;30583;48.714;9.386;2023-02-28T15:20:30;12.55;;;8.88;;
44850;SDS011;30583;48.714;9.386;2023-02-28T15:22:57;13.13;;;8.95;;
44850;SDS011;30583;48.714;9.386;2023-02-28T15:25:24;15.50;;;10.13;;
44850;SDS011;30583;48.714;9.386;2023-02-28T15:27:52;12.90;;;9.23;;
44850;SDS011;30583;48.714;9.386;2023-02-28T15:30:27;13.32;;;8.85;;
44850;SDS011;30583;48.714;9.386;2023-02-28T15:35:38;12.20;;;8.45;;
44850;SDS011;30583;48.714;9.386;2023-02-28T15:40:43;13.82;;;8.40;;
44850;SDS011;30583;48.714;9.386;2023-02-28T15:43:14;15.98;;;9.95;;
44850;SDS011;30583;48.714;9.386;2023-02-28T15:45:46;17.20;;;10.23;;
44850;SDS011;30583;48.714;9.386;2023-02-28T15:51:40;13.27;;;8.93;;
44850;SDS011;30583;48.714;9.386;2023-02-28T15:53:48;15.07;;;8.65;;
44850;SDS011;30583;48.714;9.386;2023-02-28T15:56:31;16.25;;;10.18;;
44850;SDS011;30583;48.714;9.386;2023-02-28T15:58:59;15.05;;;9.40;;
44850;SDS011;30583;48.714;9.386;2023-02-28T16:01:28;15.15;;;10.38;;
44850;SDS011;30583;48.714;9.386;2023-02-28T16:04:00;15.02;;;10.60;;
44850;SDS011;30583;48.714;9.386;2023-02-28T16:09:26;16.35;;;10.10;;
44850;SDS011;30583;48.714;9.386;2023-02-28T16:11:53;13.07;;;9.48;;
44850;SDS011;30583;48.714;9.386;2023-02-28T16:14:24;17.17;;;11.43;;
44850;SDS011;30583;48.714;9.386;2023-02-28T16:16:56;19.90;;;11.63;;
44850;SDS011;30583;48.714;9.386;2023-02-28T16:19:28;13.23;;;9.85;;
44850;SDS011;30583;48.714;9.386;2023-02-28T16:21:54;12.27;;;8.80;;
44850;SDS011;30583;48.714;9.386;2023-02-28T16:24:19;12.57;;;8.80;;
44850;SDS011;30583;48.714;9.386;2023-02-28T16:26:46;10.27;;;6.28;;
44850;SDS011;30583;48.714;9.386;2023-02-28T16:29:14;14.75;;;9.00;;
44850;SDS011;30583;48.714;9.386;2023-02-28T16:31:48;13.00;;;8.90;;
44850;SDS011;30583;48.714;9.386;2023-02-28T16:34:13;16.10;;;9.43;;
44850;SDS011;30583;48.714;9.386;2023-02-28T16:36:39;14.30;;;9.93;;
44850;SDS011;30583;48.714;9.386;2023-02-28T16:39:05;15.85;;;10.10;;
44850;SDS011;30583;48.714;9.386;2023-02-28T16:41:31;14.35;;;8.93;;
44850;SDS011;30583;48.714;9.386;2023-02-28T16:43:59;13.40;;;9.13;;
44850;SDS011;30583;48.714;9.386;2023-02-28T16:46:33;14.32;;;10.27;;
44850;SDS011;30583;48.714;9.386;2023-02-28T16:48:59;13.65;;;8.85;;
44850;SDS011;30583;48.714;9.386;2023-02-28T16:51:25;9.70;;;4.75;;
44850;SDS011;30583;48.714;9.386;2023-02-28T16:53:51;12.93;;;6.03;;
44850;SDS011;30583;48.714;9.386;2023-02-28T16:56:21;11.50;;;8.38;;
44850;SDS011;30583;48.714;9.386;2023-02-28T16:58:49;11.85;;;8.73;;
44850;SDS011;30583;48.714;9.386;2023-02-28T17:01:16;13.77;;;9.15;;
44850;SDS011;30583;48.714;9.386;2023-02-28T17:03:46;13.00;;;9.43;;
44850;SDS011;30583;48.714;9.386;2023-02-28T17:06:17;12.48;;;9.43;;
44850;SDS011;30583;48.714;9.386;2023-02-28T17:08:48;14.10;;;9.40;;
44850;SDS011;30583;48.714;9.386;2023-02-28T17:11:14;13.40;;;9.50;;
44850;SDS011;30583;48.714;9.386;2023-02-28T17:13:40;14.57;;;8.90;;
44850;SDS011;30583;48.714;9.386;2023-02-28T17:16:08;13.50;;;9.88;;
44850;SDS011;30583;48.714;9.386;2023-02-28T17:18:41;14.95;;;9.10;;
44850;SDS011;30583;48.714;9.386;2023-02-28T17:21:12;15.20;;;8.68;;
44850;SDS011;30583;48.714;9.386;2023-02-28T17:23:38;12.48;;;9.25;;
44850;SDS011;30583;48.714;9.386;2023-02-28T17:26:04;14.30;;;9.70;;
44850;SDS011;30583;48.714;9.386;2023-02-28T17:28:31;15.40;;;9.05;;